Mansfield Lahm Regional Airport
KMFD : now visible

Airfield :











YOU CAN JOIN US ON...

 
LOGIN :

Register | Disclaimer

   EN    FR    IT 

 









Legend :    VFR   Marginal VFR   IFR   Intensive IFR   Very Intensive IFR
Visi :
Ceiling :
>= 8 km
>= 3000ft
5 to 8 km
1000 to 3000 ft
1500m to 5 km
500 to 1000 ft
800 to 1500m
200 to 500 ft
< 800m
< 200 ft
Symbols :   Thunderstorms  Fog  Heavy snow  Heavy precipitations  Wind > 20 kt







- Airport Elevation : 1297 ft


KMFD - Mansfield Lahm Regional

CURRENT METAR :
  • 201552Z 13006KT 10SM CLR 26/18 A3021 RMK AO2 SLP221 T02560183

EXPIRED METARs :
  • 201452Z 17004KT 10SM CLR 24/17 A3021 RMK AO2 SLP222 T02390172 50005
  • 201352Z 16007KT 10SM CLR 22/17 A3022 RMK AO2 SLP225 T02220167

TAF KMFD
Valid from the 20 at 12:00 until the 21 at 12:00 UTC


201127Z 2012/2112 16006KT P6SM FEW250
FM201300 19007KT P6SM FEW200
FM202000 19007KT P6SM BKN035
FM210000 20006KT P6SM SCT070
No reported NOTAMs for that airfield.



MET'MAP, your aeronautical weather chart ! - Copyright ORBIFLY December 2007 - Disclaimer

ORBIFLY MET'MAP TEAM :

Programming & Development : Alexandra Zaïnal
Concept & Development : Baudouin d'Aumeries
Co-Development & Prog : Marc-Olivier Méhu
Technical & hardware support : Manuel Goepfert

Contact : metmap@orbifly.com




SOURCES & CREDITS :

   NOAA       Earth
Advisory